createdAt,value
2023-02-22T00:00:48.887Z,100434.98
2023-02-22T00:05:58.274Z,100439.23
2023-02-22T00:11:10.037Z,100445.85
2023-02-22T00:16:21.178Z,100445.90
2023-02-22T00:21:27.343Z,100450.91
2023-02-22T00:26:35.261Z,100454.52
2023-02-22T00:31:41.387Z,100456.23
2023-02-22T00:36:49.021Z,100465.74
2023-02-22T00:41:55.866Z,100473.55
2023-02-22T00:47:02.078Z,100480.30
2023-02-22T00:52:09.219Z,100485.98
2023-02-22T00:57:17.611Z,100491.53
2023-02-22T01:02:25.133Z,100493.97
2023-02-22T01:07:31.188Z,100495.83
2023-02-22T01:12:37.572Z,100504.84
2023-02-22T01:17:44.129Z,100514.08
2023-02-22T01:22:53.207Z,100515.67
2023-02-22T01:28:00.987Z,100523.83
2023-02-22T01:33:08.497Z,100531.79
2023-02-22T01:38:15.093Z,100534.23
2023-02-22T01:43:25.702Z,100536.16
2023-02-22T01:48:38.694Z,100536.91
2023-02-22T01:53:49.850Z,100539.79
2023-02-22T01:58:59.308Z,100543.02
2023-02-22T02:04:08.245Z,100545.94
2023-02-22T02:09:31.369Z,100547.55
2023-02-22T02:14:40.445Z,100557.86
2023-02-22T02:19:55.906Z,100557.96
2023-02-22T02:25:27.973Z,100566.25
2023-02-22T02:30:50.433Z,100570.96
2023-02-22T02:36:03.478Z,100576.55
2023-02-22T02:41:16.177Z,100579.89
2023-02-22T02:46:26.938Z,100583.52
2023-02-22T02:51:38.032Z,100589.85
2023-02-22T02:56:45.812Z,100595.18
2023-02-22T03:02:04.841Z,100595.04
2023-02-22T03:07:41.169Z,100596.27
2023-02-22T03:12:58.533Z,100600.17
2023-02-22T03:18:09.369Z,100603.71
2023-02-22T03:23:25.465Z,100611.26
2023-02-22T03:28:33.305Z,100618.30
2023-02-22T03:33:45.277Z,100624.19
2023-02-22T03:38:55.681Z,100626.77
2023-02-22T03:44:05.587Z,100632.91
2023-02-22T03:49:18.149Z,100644.94
2023-02-22T03:54:24.948Z,100650.71
2023-02-22T03:59:31.101Z,100651.40
2023-02-22T04:04:36.824Z,100652.29
2023-02-22T04:09:43.118Z,100655.06
2023-02-22T04:14:49.222Z,100661.02
2023-02-22T04:19:56.600Z,100663.05
2023-02-22T04:25:05.093Z,100665.27
2023-02-22T04:30:13.280Z,100671.88
2023-02-22T04:35:20.339Z,100679.16
2023-02-22T04:40:26.611Z,100684.04
2023-02-22T04:45:32.755Z,100687.23
2023-02-22T04:50:40.605Z,100687.95
2023-02-22T04:55:47.089Z,100688.88
2023-02-22T05:00:53.444Z,100691.27
2023-02-22T05:05:59.965Z,100692.45
2023-02-22T05:11:06.745Z,100697.02
2023-02-22T05:16:13.631Z,100697.15
2023-02-22T05:21:19.916Z,100700.33
2023-02-22T05:26:26.111Z,100702.26
2023-02-22T05:31:32.384Z,100707.21
2023-02-22T05:36:38.438Z,100717.23
2023-02-22T05:41:44.111Z,100730.48
2023-02-22T05:46:50.253Z,100737.16
2023-02-22T05:51:59.575Z,100737.20
2023-02-22T05:57:05.944Z,100741.03
2023-02-22T06:02:12.351Z,100743.79
2023-02-22T06:07:18.982Z,100752.56
2023-02-22T06:12:24.723Z,100760.45
2023-02-22T06:17:30.735Z,100763.95
2023-02-22T06:22:36.724Z,100772.27
2023-02-22T06:27:42.676Z,100780.06
2023-02-22T06:32:48.304Z,100790.36
2023-02-22T06:37:54.590Z,100794.08
2023-02-22T06:43:00.550Z,100798.04
2023-02-22T06:48:06.927Z,100806.35
2023-02-22T06:53:12.981Z,100807.86
2023-02-22T06:58:18.977Z,100810.91
2023-02-22T07:03:24.947Z,100821.95
2023-02-22T07:08:31.460Z,100824.42
2023-02-22T07:13:37.398Z,100828.34
2023-02-22T07:18:43.460Z,100831.60
2023-02-22T07:23:55.184Z,100836.68
2023-02-22T07:29:01.429Z,100837.38
2023-02-22T07:34:07.167Z,100833.92
2023-02-22T07:39:13.472Z,100830.46
2023-02-22T07:44:20.062Z,100828.85
2023-02-22T07:49:26.341Z,100832.88
2023-02-22T07:54:32.619Z,100835.58
2023-02-22T07:59:39.060Z,100832.92
2023-02-22T08:04:45.297Z,100834.85
2023-02-22T08:09:51.575Z,100835.14
2023-02-22T08:14:57.839Z,100838.88
2023-02-22T08:20:05.105Z,100845.35
2023-02-22T08:25:11.631Z,100855.27
2023-02-22T08:30:21.322Z,100861.19
2023-02-22T08:35:29.661Z,100860.48
2023-02-22T08:40:37.288Z,100860.98
2023-02-22T08:45:44.480Z,100862.77
2023-02-22T08:50:52.016Z,100862.77
2023-02-22T08:55:59.477Z,100870.84
2023-02-22T09:01:06.901Z,100876.45
2023-02-22T09:06:13.266Z,100884.55
2023-02-22T09:11:20.094Z,100887.78
2023-02-22T09:16:26.435Z,100887.05
2023-02-22T09:21:33.082Z,100889.52
2023-02-22T09:26:40.704Z,100893.17
2023-02-22T09:31:47.255Z,100890.92
2023-02-22T09:36:53.377Z,100891.80
2023-02-22T09:42:10.619Z,100898.79
2023-02-22T09:47:19.976Z,100902.88
2023-02-22T09:52:31.425Z,100908.27
2023-02-22T09:57:43.424Z,100912.05
2023-02-22T10:03:01.345Z,100922.29
2023-02-22T10:08:13.076Z,100932.27
2023-02-22T10:13:29.416Z,100941.33
2023-02-22T10:18:56.776Z,100946.94
2023-02-22T10:24:13.488Z,100952.80
2023-02-22T10:29:27.935Z,100957.55
2023-02-22T10:34:40.200Z,100957.85
2023-02-22T10:39:48.737Z,100955.15
2023-02-22T10:44:54.753Z,100953.05
2023-02-22T10:50:02.034Z,100954.66
2023-02-22T10:55:15.547Z,100960.35
2023-02-22T11:00:30.820Z,100956.50
2023-02-22T11:05:39.653Z,100955.63
2023-02-22T11:10:45.982Z,100950.88
2023-02-22T11:15:52.692Z,100949.11
2023-02-22T11:21:04.891Z,100947.85
2023-02-22T11:26:14.579Z,100947.00
2023-02-22T11:31:26.026Z,100948.85
2023-02-22T11:36:37.811Z,100953.82
2023-02-22T11:41:45.339Z,100955.80
2023-02-22T11:46:56.810Z,100954.73
2023-02-22T11:52:17.410Z,100954.48
2023-02-22T11:57:46.667Z,100954.80
2023-02-22T12:03:29.718Z,100954.14
2023-02-22T12:08:48.431Z,100959.55
2023-02-22T12:14:09.530Z,100961.09
2023-02-22T12:19:25.718Z,100956.20
2023-02-22T12:24:40.046Z,100955.50
2023-02-22T12:29:51.502Z,100959.36
2023-02-22T12:34:57.893Z,100956.33
2023-02-22T12:40:10.309Z,100954.95
2023-02-22T12:45:27.848Z,100963.25
2023-02-22T12:50:35.204Z,100968.94
2023-02-22T12:55:47.428Z,100974.54
2023-02-22T13:01:01.531Z,100977.76
2023-02-22T13:06:21.987Z,100977.46
2023-02-22T13:11:37.493Z,100984.11
2023-02-22T13:16:52.683Z,100989.29
2023-02-22T13:22:06.896Z,101002.73
2023-02-22T13:27:19.377Z,101008.20
2023-02-22T13:32:38.368Z,101007.57
2023-02-22T13:38:00.858Z,101004.16
2023-02-22T13:43:31.141Z,101005.08
2023-02-22T13:48:56.903Z,101003.66
2023-02-22T13:54:07.872Z,101009.04
2023-02-22T13:59:24.171Z,101009.56
2023-02-22T14:04:46.805Z,101011.86
2023-02-22T14:09:56.214Z,101010.59
2023-02-22T14:15:32.959Z,101017.98
2023-02-22T14:20:40.573Z,101024.89
2023-02-22T14:25:49.491Z,101029.20
2023-02-22T14:31:08.638Z,101030.94
2023-02-22T14:36:17.043Z,101033.02
2023-02-22T14:41:27.841Z,101035.64
2023-02-22T14:46:40.573Z,101041.04
2023-02-22T14:51:59.793Z,101034.82
2023-02-22T14:57:14.843Z,101038.34
2023-02-22T15:02:25.980Z,101039.45
2023-02-22T15:07:35.822Z,101052.61
2023-02-22T15:12:41.991Z,101049.56
2023-02-22T15:17:48.231Z,101050.05
2023-02-22T15:23:00.479Z,101049.69
2023-02-22T15:28:09.573Z,101052.55
2023-02-22T15:33:24.399Z,101053.09
2023-02-22T15:38:31.378Z,101050.19
2023-02-22T15:43:38.410Z,101057.95
2023-02-22T15:48:44.755Z,101059.05
2023-02-22T15:53:52.891Z,101064.13
2023-02-22T15:59:08.917Z,101067.23
2023-02-22T16:04:21.638Z,101069.39
2023-02-22T16:09:30.303Z,101073.27
2023-02-22T16:14:44.989Z,101073.25
2023-02-22T16:19:51.169Z,101077.00
2023-02-22T16:25:24.863Z,101081.85
2023-02-22T16:30:34.032Z,101088.81
2023-02-22T16:35:40.920Z,101088.58
2023-02-22T16:40:54.575Z,101093.51
2023-02-22T16:46:04.447Z,101098.60
2023-02-22T16:51:16.940Z,101098.23
2023-02-22T16:56:29.666Z,101099.73
2023-02-22T17:01:36.835Z,101107.98
2023-02-22T17:06:42.815Z,101106.83
2023-02-22T17:11:51.662Z,101109.05
2023-02-22T17:16:58.472Z,101109.90
2023-02-22T17:22:06.101Z,101109.21
2023-02-22T17:27:11.912Z,101112.94
2023-02-22T17:32:19.184Z,101113.90
2023-02-22T17:37:25.770Z,101117.56
2023-02-22T17:42:32.386Z,101117.82
2023-02-22T17:47:38.884Z,101117.44
2023-02-22T17:52:46.733Z,101119.92
2023-02-22T17:58:00.719Z,101119.23
2023-02-22T18:03:10.372Z,101120.73
2023-02-22T18:08:18.842Z,101123.24
2023-02-22T18:13:27.432Z,101124.73
2023-02-22T18:18:34.182Z,101130.30
2023-02-22T18:23:40.294Z,101134.06
2023-02-22T18:28:48.938Z,101140.30
2023-02-22T18:33:57.639Z,101142.94
2023-02-22T18:39:04.429Z,101143.29
2023-02-22T18:44:11.175Z,101147.92
2023-02-22T18:49:17.733Z,101146.27
2023-02-22T18:54:23.799Z,101148.46
2023-02-22T18:59:29.919Z,101142.92
2023-02-22T19:04:36.159Z,101147.02
2023-02-22T19:09:42.799Z,101144.70
2023-02-22T19:14:52.329Z,101140.21
2023-02-22T19:19:59.627Z,101140.16
2023-02-22T19:25:06.553Z,101138.48
2023-02-22T19:35:26.717Z,101136.06
2023-02-22T19:40:32.920Z,101142.02
2023-02-22T19:45:41.738Z,101148.07
2023-02-22T19:50:50.583Z,101153.98
2023-02-22T19:55:56.770Z,101157.13
2023-02-22T20:01:02.558Z,101155.22
2023-02-22T20:06:09.170Z,101157.62
2023-02-22T20:11:15.457Z,101158.28
2023-02-22T20:16:21.479Z,101158.67
2023-02-22T20:21:33.755Z,101157.50
2023-02-22T20:26:41.065Z,101160.92
2023-02-22T20:31:52.566Z,101160.79
2023-02-22T20:36:59.139Z,101155.42
2023-02-22T20:42:06.776Z,101156.73
2023-02-22T20:47:12.742Z,101159.77
2023-02-22T20:52:19.021Z,101166.05
2023-02-22T20:57:25.254Z,101165.91
2023-02-22T21:02:31.047Z,101165.45
2023-02-22T21:07:37.184Z,101164.79
2023-02-22T21:12:45.275Z,101161.73
2023-02-22T21:17:54.228Z,101159.36
2023-02-22T21:23:01.963Z,101159.19
2023-02-22T21:28:08.041Z,101157.81
2023-02-22T21:33:15.952Z,101158.47
2023-02-22T21:38:22.177Z,101165.61
2023-02-22T21:43:28.480Z,101167.24
2023-02-22T21:48:34.942Z,101164.42
2023-02-22T21:53:45.883Z,101168.17
2023-02-22T21:58:59.530Z,101170.50
2023-02-22T22:04:06.922Z,101170.92
2023-02-22T22:09:18.291Z,101166.91
2023-02-22T22:14:25.729Z,101167.70
2023-02-22T22:19:35.111Z,101163.35
2023-02-22T22:24:45.875Z,101167.26
2023-02-22T22:29:57.171Z,101170.33
2023-02-22T22:35:05.123Z,101173.03
2023-02-22T22:40:15.850Z,101170.10
2023-02-22T22:45:21.853Z,101171.23
2023-02-22T22:50:28.857Z,101171.80
2023-02-22T22:55:40.671Z,101173.61
2023-02-22T23:00:47.261Z,101178.53
2023-02-22T23:05:54.302Z,101170.98
2023-02-22T23:11:05.935Z,101171.51
2023-02-22T23:16:12.097Z,101171.95
2023-02-22T23:21:19.143Z,101177.23
2023-02-22T23:26:26.762Z,101175.46
2023-02-22T23:31:33.174Z,101173.04
2023-02-22T23:36:41.641Z,101173.80
2023-02-22T23:41:49.578Z,101175.50
2023-02-22T23:46:56.191Z,101167.61
2023-02-22T23:52:03.056Z,101161.26
2023-02-22T23:57:09.699Z,101159.83
